createdAt,value
2023-05-09T00:00:10.577Z,4.90
2023-05-09T00:02:57.796Z,5.70
2023-05-09T00:05:25.113Z,5.20
2023-05-09T00:07:52.160Z,5.40
2023-05-09T00:10:19.411Z,5.90
2023-05-09T00:12:46.797Z,5.50
2023-05-09T00:15:13.889Z,5.90
2023-05-09T00:17:41.285Z,5.50
2023-05-09T00:20:11.667Z,5.00
2023-05-09T00:22:42.253Z,5.20
2023-05-09T00:25:10.723Z,5.70
2023-05-09T00:27:37.751Z,5.30
2023-05-09T00:30:06.118Z,5.80
2023-05-09T00:32:33.801Z,5.30
2023-05-09T00:35:00.741Z,5.10
2023-05-09T00:37:30.343Z,5.80
2023-05-09T00:39:57.296Z,5.50
2023-05-09T00:42:24.239Z,4.90
2023-05-09T00:44:51.076Z,5.00
2023-05-09T00:47:18.124Z,4.90
2023-05-09T00:49:45.066Z,4.60
2023-05-09T00:52:12.007Z,4.60
2023-05-09T00:54:39.065Z,4.70
2023-05-09T00:57:06.116Z,5.10
2023-05-09T00:59:33.053Z,4.40
2023-05-09T01:02:00.509Z,5.30
2023-05-09T01:04:27.655Z,4.60
2023-05-09T01:07:06.076Z,5.20
2023-05-09T01:10:13.650Z,4.30
2023-05-09T01:13:05.867Z,5.00
2023-05-09T01:16:01.056Z,4.90
2023-05-09T01:18:34.404Z,5.00
2023-05-09T01:21:16.811Z,4.20
2023-05-09T01:23:43.757Z,5.40
2023-05-09T01:26:52.964Z,5.50
2023-05-09T01:29:31.616Z,4.80
2023-05-09T01:32:02.248Z,5.40
2023-05-09T01:34:32.053Z,6.30
2023-05-09T01:37:01.780Z,5.60
2023-05-09T01:39:31.283Z,5.50
2023-05-09T01:42:02.419Z,6.00
2023-05-09T01:44:37.877Z,6.20
2023-05-09T01:47:07.370Z,5.90
2023-05-09T01:49:37.287Z,6.30
2023-05-09T01:52:08.537Z,6.30
2023-05-09T01:54:36.800Z,6.60
2023-05-09T01:57:05.892Z,6.20
2023-05-09T01:59:34.879Z,6.30
2023-05-09T02:02:03.301Z,5.20
2023-05-09T02:04:31.850Z,5.70
2023-05-09T02:07:00.823Z,5.00
2023-05-09T02:09:27.680Z,4.80
2023-05-09T02:11:54.735Z,4.70
2023-05-09T02:14:21.774Z,5.10
2023-05-09T02:16:49.394Z,5.00
2023-05-09T02:19:17.090Z,5.50
2023-05-09T02:21:44.345Z,4.70
2023-05-09T02:24:11.397Z,5.30
2023-05-09T02:26:40.186Z,4.70
2023-05-09T02:29:08.358Z,5.50
2023-05-09T02:31:36.867Z,5.00
2023-05-09T02:34:05.129Z,4.70
2023-05-09T02:36:32.464Z,4.80
2023-05-09T02:39:00.944Z,5.50
2023-05-09T02:41:30.351Z,4.70
2023-05-09T02:43:57.191Z,4.50
2023-05-09T02:46:24.163Z,4.70
2023-05-09T02:48:51.697Z,5.20
2023-05-09T02:51:18.538Z,4.60
2023-05-09T02:53:45.585Z,4.60
2023-05-09T02:56:12.529Z,4.90
2023-05-09T02:58:39.372Z,5.30
2023-05-09T03:01:06.454Z,4.90
2023-05-09T03:03:34.251Z,4.80
2023-05-09T03:06:03.177Z,4.90
2023-05-09T03:08:30.633Z,4.80
2023-05-09T03:10:57.573Z,5.50
2023-05-09T03:13:24.667Z,5.80
2023-05-09T03:15:51.788Z,6.00
2023-05-09T03:18:18.611Z,5.60
2023-05-09T03:20:45.773Z,7.20
2023-05-09T03:23:12.816Z,6.70
2023-05-09T03:25:39.865Z,7.90
2023-05-09T03:28:06.805Z,5.90
2023-05-09T03:30:33.648Z,7.10
2023-05-09T03:33:01.380Z,6.30
2023-05-09T03:35:28.461Z,6.80
2023-05-09T03:37:55.709Z,7.60
2023-05-09T03:40:22.552Z,7.00
2023-05-09T03:42:54.103Z,6.70
2023-05-09T03:45:21.479Z,6.80
2023-05-09T03:47:48.850Z,5.90
2023-05-09T03:50:16.063Z,6.50
2023-05-09T03:52:43.625Z,7.20
2023-05-09T03:55:11.724Z,5.50
2023-05-09T03:57:39.150Z,6.20
2023-05-09T04:00:12.651Z,6.00
2023-05-09T04:02:49.393Z,6.10
2023-05-09T04:05:22.412Z,7.00
2023-05-09T04:07:49.573Z,6.10
2023-05-09T04:10:16.713Z,5.40
2023-05-09T04:12:43.806Z,5.80
2023-05-09T04:15:11.829Z,5.70
2023-05-09T04:17:39.708Z,5.40
2023-05-09T04:20:07.871Z,5.10
2023-05-09T04:22:34.716Z,5.20
2023-05-09T04:25:03.699Z,5.30
2023-05-09T04:27:31.473Z,5.10
2023-05-09T04:29:58.726Z,5.50
2023-05-09T04:32:26.810Z,5.30
2023-05-09T04:34:54.458Z,5.40
2023-05-09T04:37:22.936Z,5.40
2023-05-09T04:39:51.106Z,5.00
2023-05-09T04:42:22.458Z,5.40
2023-05-09T04:44:49.526Z,5.30
2023-05-09T04:47:16.656Z,4.90
2023-05-09T04:49:43.492Z,5.00
2023-05-09T04:52:10.336Z,4.90
2023-05-09T04:54:37.493Z,5.70
2023-05-09T04:57:16.580Z,4.80
2023-05-09T04:59:45.833Z,5.10
2023-05-09T05:02:13.477Z,5.40
2023-05-09T05:04:41.471Z,5.80
2023-05-09T05:07:09.007Z,5.80
2023-05-09T05:09:36.256Z,5.80
2023-05-09T05:12:08.392Z,6.30
2023-05-09T05:14:37.010Z,6.70
2023-05-09T05:17:04.888Z,5.90
2023-05-09T05:19:32.328Z,5.90
2023-05-09T05:21:59.474Z,5.70
2023-05-09T05:24:26.727Z,5.40
2023-05-09T05:26:53.781Z,6.70
2023-05-09T05:29:20.824Z,6.30
2023-05-09T05:31:47.688Z,5.90
2023-05-09T05:34:16.248Z,5.90
2023-05-09T05:36:43.907Z,6.30
2023-05-09T05:39:11.057Z,6.80
2023-05-09T05:41:38.004Z,5.70
2023-05-09T05:44:05.763Z,6.30
2023-05-09T05:46:33.686Z,5.60
2023-05-09T05:49:01.629Z,6.50
2023-05-09T05:51:28.750Z,6.00
2023-05-09T05:53:55.900Z,5.40
2023-05-09T05:56:23.558Z,4.90
2023-05-09T05:58:50.503Z,4.90
2023-05-09T06:01:17.971Z,5.20
2023-05-09T06:03:45.070Z,5.40
2023-05-09T06:06:12.152Z,5.10
2023-05-09T06:08:39.103Z,4.60
2023-05-09T06:11:06.165Z,4.20
2023-05-09T06:13:33.302Z,4.50
2023-05-09T06:16:14.993Z,4.50
2023-05-09T06:18:45.413Z,4.40
2023-05-09T06:21:12.399Z,4.20
2023-05-09T06:23:47.321Z,5.10
2023-05-09T06:26:24.473Z,4.40
2023-05-09T06:28:51.314Z,5.20
2023-05-09T06:31:18.167Z,4.20
2023-05-09T06:33:45.004Z,5.30
2023-05-09T06:36:11.947Z,4.40
2023-05-09T06:38:38.789Z,5.40
2023-05-09T06:41:05.640Z,4.90
2023-05-09T06:43:32.576Z,5.00
2023-05-09T06:45:59.844Z,5.60
2023-05-09T06:48:26.780Z,5.50
2023-05-09T06:50:54.136Z,5.80
2023-05-09T06:53:21.379Z,5.20
2023-05-09T06:55:48.236Z,5.30
2023-05-09T06:58:15.268Z,4.30
2023-05-09T07:00:42.111Z,5.10
2023-05-09T07:03:10.157Z,5.10
2023-05-09T07:05:37.130Z,5.00
2023-05-09T07:08:04.694Z,4.20
2023-05-09T07:10:31.956Z,4.60
2023-05-09T07:12:58.917Z,4.50
2023-05-09T07:15:39.810Z,10.80
2023-05-09T07:18:09.199Z,4.90
2023-05-09T07:20:36.497Z,12.70
2023-05-09T07:23:05.522Z,12.80
2023-05-09T07:25:32.552Z,4.80
2023-05-09T07:27:59.294Z,7.70
2023-05-09T07:30:26.155Z,13.20
2023-05-09T07:32:53.117Z,5.10
2023-05-09T07:35:20.544Z,12.30
2023-05-09T07:37:47.382Z,3.40
2023-05-09T07:40:14.909Z,5.40
2023-05-09T07:42:48.993Z,6.10
2023-05-09T07:45:16.617Z,5.30
2023-05-09T07:47:44.204Z,7.20
2023-05-09T07:50:11.338Z,6.10
2023-05-09T07:52:38.463Z,3.90
2023-05-09T07:55:06.268Z,3.90
2023-05-09T07:57:33.375Z,2.90
2023-05-09T08:00:00.434Z,2.40
2023-05-09T08:02:27.430Z,2.60
2023-05-09T08:04:54.433Z,5.80
2023-05-09T08:07:21.253Z,4.50
2023-05-09T08:09:48.202Z,5.00
2023-05-09T08:12:15.061Z,2.40
2023-05-09T08:14:41.886Z,1.90
2023-05-09T08:17:08.845Z,1.80
2023-05-09T08:19:35.667Z,2.10
2023-05-09T08:22:02.723Z,1.50
2023-05-09T08:24:30.178Z,1.60
2023-05-09T08:26:57.121Z,1.40
2023-05-09T08:29:23.968Z,1.10
2023-05-09T08:31:51.138Z,1.40
2023-05-09T08:34:18.280Z,1.70
2023-05-09T08:36:46.546Z,1.70
2023-05-09T08:39:13.691Z,1.30
2023-05-09T08:41:42.177Z,1.50
2023-05-09T08:44:09.535Z,2.20
2023-05-09T08:46:39.262Z,2.20
2023-05-09T08:49:07.786Z,2.20
2023-05-09T08:51:38.460Z,2.20
2023-05-09T08:54:05.833Z,1.70
2023-05-09T08:56:35.415Z,1.70
2023-05-09T08:59:05.230Z,1.60
2023-05-09T09:01:33.857Z,1.80
2023-05-09T09:04:02.190Z,1.70
2023-05-09T09:06:30.261Z,2.10
2023-05-09T09:08:58.937Z,2.00
2023-05-09T09:11:28.289Z,2.30
2023-05-09T09:14:00.512Z,2.40
2023-05-09T09:16:28.899Z,2.20
2023-05-09T09:18:58.708Z,2.30
2023-05-09T09:21:27.077Z,2.40
2023-05-09T09:23:56.279Z,2.10
2023-05-09T09:26:24.347Z,2.10
2023-05-09T09:28:51.594Z,2.10
2023-05-09T09:31:27.099Z,1.50
2023-05-09T09:34:02.071Z,1.20
2023-05-09T09:36:31.937Z,1.00
2023-05-09T09:39:01.152Z,1.60
2023-05-09T09:41:35.096Z,1.10
2023-05-09T09:44:08.927Z,1.50
2023-05-09T09:46:55.944Z,1.40
2023-05-09T09:49:25.110Z,3.60
2023-05-09T09:51:51.968Z,1.80
2023-05-09T09:54:19.111Z,1.40
2023-05-09T09:56:53.009Z,1.50
2023-05-09T09:59:25.280Z,1.60
2023-05-09T10:02:13.027Z,1.10
2023-05-09T10:04:43.549Z,1.40
2023-05-09T10:07:12.771Z,1.20
2023-05-09T10:09:40.715Z,1.20
2023-05-09T10:12:08.838Z,1.20
2023-05-09T10:14:38.152Z,1.30
2023-05-09T10:17:05.636Z,1.90
2023-05-09T10:19:35.593Z,1.50
2023-05-09T10:22:05.730Z,1.30
2023-05-09T10:24:43.482Z,1.10
2023-05-09T10:27:11.663Z,1.30
2023-05-09T10:29:44.635Z,1.70
2023-05-09T10:34:44.025Z,1.30
2023-05-09T10:37:12.220Z,1.30
2023-05-09T10:39:40.191Z,1.00
2023-05-09T10:42:08.156Z,1.10
2023-05-09T10:44:35.612Z,1.40
2023-05-09T10:47:03.081Z,1.30
2023-05-09T10:49:31.449Z,1.10
2023-05-09T10:51:58.389Z,1.40
2023-05-09T10:54:31.831Z,0.90
2023-05-09T10:57:00.372Z,1.30
2023-05-09T10:59:43.397Z,1.40
2023-05-09T11:02:15.465Z,1.80
2023-05-09T11:04:43.838Z,2.20
2023-05-09T11:07:25.449Z,4.20
2023-05-09T11:10:19.511Z,3.40
2023-05-09T11:12:58.342Z,1.60
2023-05-09T11:15:27.227Z,1.60
2023-05-09T11:18:09.289Z,1.50
2023-05-09T11:20:43.291Z,1.20
2023-05-09T11:23:11.980Z,1.70
2023-05-09T11:25:39.368Z,1.50
2023-05-09T11:28:06.214Z,1.10
2023-05-09T11:30:40.596Z,2.10
2023-05-09T11:33:22.666Z,1.20
2023-05-09T11:36:19.069Z,1.70
2023-05-09T11:38:47.445Z,5.00
2023-05-09T11:41:15.112Z,1.90
2023-05-09T11:43:44.073Z,6.80
2023-05-09T11:46:12.295Z,5.30
2023-05-09T11:48:41.709Z,4.20
2023-05-09T11:51:17.130Z,2.00
2023-05-09T11:53:49.488Z,3.30
2023-05-09T11:56:17.258Z,2.20
2023-05-09T11:58:46.350Z,1.70
2023-05-09T12:01:13.407Z,1.30
2023-05-09T12:03:44.930Z,1.30
2023-05-09T12:06:17.833Z,1.80
2023-05-09T12:08:45.905Z,2.00
2023-05-09T12:11:14.587Z,1.60
2023-05-09T12:13:49.307Z,1.50
2023-05-09T12:16:17.774Z,1.50
2023-05-09T12:18:49.804Z,1.30
2023-05-09T12:21:21.208Z,1.50
2023-05-09T12:23:50.988Z,1.40
2023-05-09T12:26:19.292Z,1.50
2023-05-09T12:28:47.265Z,1.80
2023-05-09T12:31:14.425Z,1.40
2023-05-09T12:33:41.672Z,1.40
2023-05-09T12:36:11.252Z,1.30
2023-05-09T12:38:39.074Z,1.40
2023-05-09T12:41:22.425Z,1.50
2023-05-09T12:43:58.365Z,1.40
2023-05-09T12:46:25.509Z,1.30
2023-05-09T12:48:52.417Z,1.50
2023-05-09T12:51:21.329Z,1.60
2023-05-09T12:53:48.477Z,1.70
2023-05-09T12:56:18.160Z,1.30
2023-05-09T12:58:55.366Z,1.70
2023-05-09T13:01:27.311Z,1.20
2023-05-09T13:04:06.053Z,1.60
2023-05-09T13:06:35.228Z,1.70
2023-05-09T13:09:08.690Z,1.70
2023-05-09T13:11:37.313Z,1.70
2023-05-09T13:14:04.375Z,1.60
2023-05-09T13:16:31.335Z,1.50
2023-05-09T13:18:58.143Z,1.30
2023-05-09T13:21:25.107Z,1.70
2023-05-09T13:23:52.211Z,1.50
2023-05-09T13:26:19.515Z,1.60
2023-05-09T13:28:46.442Z,1.70
2023-05-09T13:31:13.616Z,1.50
2023-05-09T13:33:40.637Z,1.80
2023-05-09T13:36:07.680Z,1.90
2023-05-09T13:38:40.052Z,1.90
2023-05-09T13:41:07.100Z,1.70
2023-05-09T13:43:34.772Z,2.00
2023-05-09T13:46:02.867Z,1.40
2023-05-09T13:48:29.785Z,1.50
2023-05-09T13:50:59.075Z,2.20
2023-05-09T13:53:26.125Z,2.50
2023-05-09T13:55:52.962Z,1.80
2023-05-09T13:58:20.019Z,1.60
2023-05-09T14:00:46.858Z,1.90
2023-05-09T14:03:13.730Z,2.20
2023-05-09T14:05:41.980Z,1.70
2023-05-09T14:08:09.026Z,1.60
2023-05-09T14:10:35.862Z,1.90
2023-05-09T14:13:02.822Z,1.30
2023-05-09T14:15:29.760Z,1.70
2023-05-09T14:17:56.667Z,2.00
2023-05-09T14:20:23.741Z,1.70
2023-05-09T14:22:51.404Z,2.10
2023-05-09T14:25:18.473Z,1.70
2023-05-09T14:27:45.294Z,1.90
2023-05-09T14:30:12.990Z,1.70
2023-05-09T14:32:40.414Z,2.10
2023-05-09T14:35:08.013Z,2.50
2023-05-09T14:37:35.445Z,2.50
2023-05-09T14:40:05.149Z,2.90
2023-05-09T14:42:32.513Z,3.90
2023-05-09T14:44:59.554Z,2.30
2023-05-09T14:47:26.511Z,2.20
2023-05-09T14:49:53.433Z,2.10
2023-05-09T14:52:20.474Z,2.30
2023-05-09T14:54:47.436Z,2.20
2023-05-09T14:57:14.370Z,2.20
2023-05-09T14:59:41.825Z,2.00
2023-05-09T15:02:08.882Z,2.20
2023-05-09T15:04:35.857Z,2.10
2023-05-09T15:07:02.773Z,2.60
2023-05-09T15:09:29.607Z,2.70
2023-05-09T15:11:56.546Z,2.50
2023-05-09T15:14:23.492Z,2.20
2023-05-09T15:16:51.887Z,2.30
2023-05-09T15:19:19.226Z,2.50
2023-05-09T15:21:46.075Z,3.10
2023-05-09T15:24:13.033Z,3.20
2023-05-09T15:26:42.722Z,3.80
2023-05-09T15:29:10.076Z,3.40
2023-05-09T15:31:37.069Z,4.60
2023-05-09T15:34:04.371Z,4.20
2023-05-09T15:36:33.351Z,3.80
2023-05-09T15:39:00.312Z,3.80
2023-05-09T15:41:28.185Z,3.50
2023-05-09T15:43:55.131Z,3.60
2023-05-09T15:46:22.110Z,3.90
2023-05-09T15:48:49.150Z,3.80
2023-05-09T15:51:16.055Z,3.70
2023-05-09T15:53:43.001Z,3.40
2023-05-09T15:56:10.152Z,2.50
2023-05-09T15:58:37.203Z,3.10
2023-05-09T16:01:05.775Z,3.60
2023-05-09T16:03:33.351Z,3.60
2023-05-09T16:06:01.024Z,4.70
2023-05-09T16:08:27.945Z,6.40
2023-05-09T16:10:55.415Z,14.20
2023-05-09T16:13:22.281Z,24.10
2023-05-09T16:15:50.451Z,43.80
2023-05-09T16:18:17.573Z,21.10
2023-05-09T16:20:44.423Z,6.90
2023-05-09T16:23:11.405Z,4.80
2023-05-09T16:25:38.315Z,4.80
2023-05-09T16:28:06.679Z,4.60
2023-05-09T16:30:33.931Z,5.00
2023-05-09T16:33:00.807Z,4.40
2023-05-09T16:35:28.027Z,4.50
2023-05-09T16:37:54.970Z,4.80
2023-05-09T16:40:21.922Z,4.50
2023-05-09T16:42:49.070Z,5.10
2023-05-09T16:45:15.904Z,4.40
2023-05-09T16:47:42.777Z,4.60
2023-05-09T16:50:10.325Z,5.00
2023-05-09T16:52:37.355Z,5.10
2023-05-09T16:55:05.216Z,4.40
2023-05-09T16:57:32.060Z,4.70
2023-05-09T16:59:58.908Z,5.00
2023-05-09T17:02:25.780Z,6.00
2023-05-09T17:04:52.772Z,6.40
2023-05-09T17:07:19.741Z,5.50
2023-05-09T17:09:48.135Z,5.80
2023-05-09T17:12:17.622Z,5.40
2023-05-09T17:14:45.281Z,5.50
2023-05-09T17:17:14.149Z,4.40
2023-05-09T17:19:41.136Z,4.80
2023-05-09T17:22:08.475Z,5.20
2023-05-09T17:24:35.417Z,5.90
2023-05-09T17:27:03.185Z,7.00
2023-05-09T17:29:30.679Z,7.80
2023-05-09T17:32:01.588Z,7.90
2023-05-09T17:34:29.146Z,7.50
2023-05-09T17:36:56.655Z,8.20
2023-05-09T17:39:24.773Z,7.60
2023-05-09T17:41:51.712Z,7.10
2023-05-09T17:44:18.875Z,6.90
2023-05-09T17:46:47.656Z,7.20
2023-05-09T17:49:15.005Z,6.80
2023-05-09T17:51:42.255Z,6.90
2023-05-09T17:54:10.443Z,8.60
2023-05-09T17:56:37.270Z,9.90
2023-05-09T17:59:04.112Z,8.90
2023-05-09T18:01:30.992Z,7.20
2023-05-09T18:03:57.969Z,5.50
2023-05-09T18:06:25.882Z,5.30
2023-05-09T18:08:52.712Z,5.00
2023-05-09T18:11:20.268Z,4.70
2023-05-09T18:13:47.706Z,5.90
2023-05-09T18:16:14.606Z,5.60
2023-05-09T18:18:41.521Z,5.80
2023-05-09T18:21:09.173Z,4.80
2023-05-09T18:23:36.425Z,5.40
2023-05-09T18:26:03.981Z,5.60
2023-05-09T18:28:38.654Z,5.70
2023-05-09T18:31:08.935Z,6.20
2023-05-09T18:33:37.825Z,6.10
2023-05-09T18:36:08.409Z,5.30
2023-05-09T18:38:37.900Z,6.20
2023-05-09T18:41:10.062Z,6.30
2023-05-09T18:43:41.577Z,5.40
2023-05-09T18:46:08.530Z,5.70
2023-05-09T18:48:35.473Z,5.50
2023-05-09T18:51:02.409Z,6.50
2023-05-09T18:53:29.509Z,6.00
2023-05-09T18:55:56.406Z,6.90
2023-05-09T18:58:24.266Z,6.20
2023-05-09T19:00:52.499Z,7.80
2023-05-09T19:03:20.427Z,8.70
2023-05-09T19:05:47.473Z,8.70
2023-05-09T19:08:14.559Z,8.00
2023-05-09T19:10:42.171Z,8.40
2023-05-09T19:13:09.302Z,8.00
2023-05-09T19:15:36.472Z,7.70
2023-05-09T19:18:03.771Z,8.30
2023-05-09T19:20:31.087Z,7.40
2023-05-09T19:22:58.822Z,8.20
2023-05-09T19:25:26.086Z,7.90
2023-05-09T19:27:53.025Z,7.60
2023-05-09T19:30:20.491Z,7.40
2023-05-09T19:32:47.339Z,7.60
2023-05-09T19:35:14.369Z,8.90
2023-05-09T19:37:41.429Z,9.10
2023-05-09T19:40:09.092Z,8.10
2023-05-09T19:42:37.354Z,9.10
2023-05-09T19:45:04.812Z,8.10
2023-05-09T19:47:31.692Z,7.80
2023-05-09T19:49:58.803Z,8.80
2023-05-09T19:52:25.646Z,8.40
2023-05-09T19:54:52.402Z,8.80
2023-05-09T19:57:20.046Z,8.10
2023-05-09T19:59:46.895Z,7.90
2023-05-09T20:02:13.836Z,8.40
2023-05-09T20:04:46.106Z,7.50
2023-05-09T20:07:13.047Z,7.70
2023-05-09T20:09:41.732Z,7.30
2023-05-09T20:12:09.521Z,7.50
2023-05-09T20:14:36.509Z,8.30
2023-05-09T20:17:04.822Z,7.70
2023-05-09T20:19:32.806Z,6.80
2023-05-09T20:22:01.348Z,7.80
2023-05-09T20:24:28.317Z,7.00
2023-05-09T20:26:55.267Z,7.10
2023-05-09T20:29:23.943Z,7.40
2023-05-09T20:31:51.008Z,6.30
2023-05-09T20:34:19.270Z,6.60
2023-05-09T20:36:50.153Z,5.80
2023-05-09T20:39:17.985Z,6.50
2023-05-09T20:41:45.609Z,6.00
2023-05-09T20:44:13.832Z,6.30
2023-05-09T20:46:41.261Z,6.20
2023-05-09T20:49:09.028Z,6.10
2023-05-09T20:51:36.177Z,10.20
2023-05-09T20:54:03.797Z,14.00
2023-05-09T20:56:30.578Z,11.90
2023-05-09T20:59:03.165Z,7.70
2023-05-09T21:01:31.968Z,13.10
2023-05-09T21:03:58.907Z,13.10
2023-05-09T21:06:25.833Z,8.10
2023-05-09T21:08:52.773Z,8.40
2023-05-09T21:11:19.723Z,6.30
2023-05-09T21:13:46.871Z,5.40
2023-05-09T21:16:13.715Z,5.80
2023-05-09T21:18:40.558Z,5.30
2023-05-09T21:21:07.804Z,5.30
2023-05-09T21:23:35.092Z,4.90
2023-05-09T21:26:02.004Z,4.60
2023-05-09T21:28:28.942Z,5.00
2023-05-09T21:30:55.955Z,5.00
2023-05-09T21:33:22.830Z,5.50
2023-05-09T21:35:49.789Z,5.80
2023-05-09T21:38:16.620Z,5.40
2023-05-09T21:40:43.358Z,5.90
2023-05-09T21:43:12.993Z,5.30
2023-05-09T21:45:39.809Z,4.90
2023-05-09T21:48:06.655Z,5.80
2023-05-09T21:50:33.503Z,5.40
2023-05-09T21:53:01.054Z,5.60
2023-05-09T21:55:27.897Z,5.00
2023-05-09T21:57:54.838Z,5.50
2023-05-09T22:00:22.298Z,5.00
2023-05-09T22:02:50.034Z,5.10
2023-05-09T22:05:17.528Z,5.60
2023-05-09T22:07:44.367Z,5.50
2023-05-09T22:10:11.810Z,5.70
2023-05-09T22:12:38.657Z,5.50
2023-05-09T22:15:06.433Z,5.80
2023-05-09T22:17:33.609Z,5.30
2023-05-09T22:20:00.822Z,6.00
2023-05-09T22:22:27.779Z,5.30
2023-05-09T22:24:56.039Z,5.20
2023-05-09T22:27:22.892Z,4.90
2023-05-09T22:29:50.037Z,4.50
2023-05-09T22:32:17.397Z,4.20
2023-05-09T22:34:47.582Z,3.50
2023-05-09T22:37:14.763Z,4.30
2023-05-09T22:39:43.651Z,4.00
2023-05-09T22:42:10.798Z,3.90
2023-05-09T22:44:38.458Z,3.70
2023-05-09T22:47:09.193Z,3.50
2023-05-09T22:49:36.037Z,2.90
2023-05-09T22:52:03.200Z,3.20
2023-05-09T22:54:30.128Z,3.10
2023-05-09T22:56:57.072Z,3.50
2023-05-09T22:59:23.917Z,3.10
2023-05-09T23:01:51.374Z,3.60
2023-05-09T23:04:18.529Z,3.40
2023-05-09T23:06:45.365Z,3.10
2023-05-09T23:09:12.314Z,3.40
2023-05-09T23:11:39.056Z,2.90
2023-05-09T23:14:06.304Z,3.00
2023-05-09T23:16:33.147Z,3.00
2023-05-09T23:19:00.191Z,3.50
2023-05-09T23:21:26.942Z,3.10
2023-05-09T23:23:53.777Z,3.30
2023-05-09T23:26:21.333Z,3.40
2023-05-09T23:28:48.176Z,3.00
2023-05-09T23:31:15.128Z,2.80
2023-05-09T23:33:42.068Z,3.10
2023-05-09T23:36:09.310Z,2.90
2023-05-09T23:38:36.055Z,3.00
2023-05-09T23:41:03.004Z,3.10
2023-05-09T23:43:29.842Z,3.10
2023-05-09T23:45:56.784Z,3.60
2023-05-09T23:48:23.734Z,3.50
2023-05-09T23:50:51.287Z,3.50
2023-05-09T23:53:19.464Z,3.00
2023-05-09T23:55:46.308Z,3.70
2023-05-09T23:58:13.561Z,3.20
